Time;durP1;ratioP1;P1;durP2;ratioP2;P2;SDS_P1;SDS_P2;PMS_P1;PMS_P2;Temp;Humidity;BMP_temperature;BMP_pressure;BME280_temperature;BME280_humidity;BME280_pressure;Samples;Min_cycle;Max_cycle;Signal;HPM_P1;HPM_P2
2021/03/24 00:00:49;;;;;;;8.23;4.07;;;4.50;61.00;;;;;;5097164;28;20047;-72
2021/03/24 00:03:16;;;;;;;7.22;3.65;;;4.50;61.60;;;;;;5096902;28;20024;-72
2021/03/24 00:05:46;;;;;;;7.25;3.50;;;4.60;61.60;;;;;;5078935;28;20020;-72
2021/03/24 00:08:12;;;;;;;6.72;4.18;;;4.50;61.90;;;;;;5096887;28;20020;-72
2021/03/24 00:10:38;;;;;;;7.53;3.85;;;4.50;61.80;;;;;;5078860;28;20365;-72
2021/03/24 00:13:05;;;;;;;7.20;3.70;;;4.50;62.10;;;;;;5096605;28;20115;-72
2021/03/24 00:15:31;;;;;;;6.47;3.67;;;4.50;62.30;;;;;;5096756;28;20099;-72
2021/03/24 00:17:57;;;;;;;8.48;5.07;;;4.50;62.00;;;;;;5096979;28;20032;-72
2021/03/24 00:20:26;;;;;;;6.45;4.40;;;4.40;62.50;;;;;;5096935;28;20073;-72
2021/03/24 00:22:53;;;;;;;10.15;4.80;;;4.40;61.30;;;;;;5096488;28;20324;-72
2021/03/24 00:25:19;;;;;;;8.20;4.63;;;4.40;62.30;;;;;;5096357;28;20048;-72
2021/03/24 00:27:48;;;;;;;7.50;4.10;;;4.30;62.90;;;;;;5096483;28;20031;-72
2021/03/24 00:30:18;;;;;;;7.00;4.25;;;4.30;62.70;;;;;;5096614;28;20028;-72
2021/03/24 00:32:43;;;;;;;12.35;3.63;;;4.20;62.20;;;;;;5096588;28;20047;-72
2021/03/24 00:35:10;;;;;;;11.63;3.97;;;4.30;61.50;;;;;;5096501;28;20063;-72
2021/03/24 00:37:37;;;;;;;8.88;4.10;;;4.40;61.20;;;;;;5096801;28;20364;-72
2021/03/24 00:40:08;;;;;;;8.27;4.38;;;4.40;61.50;;;;;;5099924;28;20060;-72
2021/03/24 00:42:34;;;;;;;7.78;4.05;;;4.50;61.40;;;;;;5100347;28;20089;-72
2021/03/24 00:44:59;;;;;;;7.13;4.28;;;4.50;61.30;;;;;;5100387;28;20020;-72
2021/03/24 00:47:25;;;;;;;6.30;4.40;;;4.40;61.30;;;;;;5100441;28;20111;-72
2021/03/24 00:49:50;;;;;;;6.05;4.15;;;4.50;61.40;;;;;;5100320;28;20074;-72
2021/03/24 00:52:16;;;;;;;7.82;4.65;;;4.50;61.00;;;;;;5100155;28;20035;-72
2021/03/24 00:54:42;;;;;;;11.68;4.93;;;4.50;61.00;;;;;;5100117;28;20024;-72
2021/03/24 00:57:08;;;;;;;8.18;4.25;;;4.50;60.70;;;;;;5100185;28;20057;-71
2021/03/24 00:59:34;;;;;;;6.78;4.20;;;4.50;60.80;;;;;;5100406;28;20085;-71
2021/03/24 01:01:59;;;;;;;5.85;4.10;;;4.50;60.90;;;;;;5100034;28;20467;-72
2021/03/24 01:04:25;;;;;;;6.85;4.30;;;4.50;61.10;;;;;;5100008;28;20020;-72
2021/03/24 01:06:51;;;;;;;10.02;4.43;;;4.40;61.30;;;;;;5100220;28;20024;-72
2021/03/24 01:09:16;;;;;;;10.77;4.97;;;4.40;61.40;;;;;;5099945;28;20012;-72
2021/03/24 01:11:42;;;;;;;6.25;4.45;;;4.40;61.40;;;;;;5099952;28;20028;-72
2021/03/24 01:14:10;;;;;;;9.05;4.43;;;4.30;61.50;;;;;;5099689;28;20037;-72
2021/03/24 01:16:36;;;;;;;7.97;3.95;;;4.40;61.40;;;;;;5099859;28;20024;-70
2021/03/24 01:19:03;;;;;;;6.13;4.60;;;4.40;61.50;;;;;;5099816;28;20092;-71
2021/03/24 01:21:29;;;;;;;8.93;4.50;;;4.40;61.50;;;;;;5099916;28;20103;-72
2021/03/24 01:23:54;;;;;;;9.23;4.40;;;4.50;61.00;;;;;;5100004;28;20489;-71
2021/03/24 01:26:21;;;;;;;6.65;4.05;;;4.50;61.70;;;;;;5099412;28;20111;-72
2021/03/24 01:28:57;;;;;;;8.60;5.25;;;4.60;61.30;;;;;;5099669;28;20420;-72
2021/03/24 01:31:24;;;;;;;7.13;4.57;;;4.50;61.50;;;;;;5099571;28;20375;-72
2021/03/24 01:33:49;;;;;;;6.55;4.47;;;4.60;61.30;;;;;;5099435;28;20074;-72
2021/03/24 01:36:15;;;;;;;11.00;5.05;;;4.60;61.30;;;;;;5099440;28;20027;-72
2021/03/24 01:38:40;;;;;;;11.52;4.93;;;4.60;61.00;;;;;;5099483;28;20020;-72
2021/03/24 01:41:06;;;;;;;10.25;4.47;;;4.60;60.90;;;;;;5081350;28;20021;-72
2021/03/24 01:43:35;;;;;;;9.52;4.40;;;4.60;60.60;;;;;;5099232;28;20062;-72
2021/03/24 01:46:19;;;;;;;10.48;4.18;;;4.60;60.10;;;;;;5099250;28;20145;-72
2021/03/24 01:49:00;;;;;;;11.18;4.50;;;4.60;60.20;;;;;;5099515;28;20031;-72
2021/03/24 01:51:47;;;;;;;9.57;4.72;;;4.50;60.30;;;;;;5098157;28;20348;-72
2021/03/24 01:54:19;;;;;;;11.45;4.32;;;4.40;61.30;;;;;;5081384;28;20107;-72
2021/03/24 01:56:48;;;;;;;7.28;4.35;;;4.30;62.50;;;;;;5099325;28;20063;-72
2021/03/24 01:59:15;;;;;;;6.90;4.85;;;4.20;63.20;;;;;;5081039;28;20036;-72
2021/03/24 02:01:41;;;;;;;6.88;4.13;;;4.00;63.60;;;;;;5080906;28;20114;-72
2021/03/24 02:04:08;;;;;;;8.70;4.50;;;3.90;63.90;;;;;;5081144;28;20299;-72
2021/03/24 02:06:43;;;;;;;10.25;5.07;;;3.90;64.20;;;;;;5098846;28;20035;-72
2021/03/24 02:09:22;;;;;;;8.02;4.65;;;3.80;64.70;;;;;;5099051;28;20052;-72
2021/03/24 02:12:00;;;;;;;7.53;4.28;;;3.60;64.60;;;;;;5098726;28;20033;-72
2021/03/24 02:14:34;;;;;;;9.85;4.80;;;3.60;63.90;;;;;;5098641;28;20390;-72
2021/03/24 02:17:02;;;;;;;14.82;5.28;;;3.80;62.70;;;;;;5098648;28;20031;-72
2021/03/24 02:19:49;;;;;;;10.23;4.95;;;3.90;63.40;;;;;;5098883;28;20073;-72
2021/03/24 02:22:21;;;;;;;11.00;4.95;;;4.00;64.20;;;;;;5080486;28;20032;-72
2021/03/24 02:24:55;;;;;;;7.22;4.65;;;3.90;64.80;;;;;;5098181;28;20107;-72
2021/03/24 02:27:30;;;;;;;8.02;4.90;;;3.80;64.80;;;;;;5098710;28;20034;-72
2021/03/24 02:30:04;;;;;;;9.15;4.32;;;3.80;65.20;;;;;;5098394;28;20404;-72
2021/03/24 02:32:34;;;;;;;8.27;4.63;;;3.70;64.90;;;;;;5098304;28;20032;-72
2021/03/24 02:35:04;;;;;;;10.75;5.00;;;3.80;64.10;;;;;;5098537;28;20077;-72
2021/03/24 02:37:31;;;;;;;10.68;4.55;;;3.80;64.20;;;;;;5098328;28;20032;-72
2021/03/24 02:39:58;;;;;;;7.53;4.78;;;3.80;64.10;;;;;;5098199;28;20035;-72
2021/03/24 02:42:25;;;;;;;9.68;4.55;;;3.80;63.90;;;;;;5098005;28;20043;-72
2021/03/24 02:44:52;;;;;;;8.43;4.63;;;3.80;64.50;;;;;;5098271;28;20020;-72
2021/03/24 02:47:18;;;;;;;9.55;5.30;;;3.80;64.10;;;;;;5098017;28;20019;-72
2021/03/24 02:49:44;;;;;;;8.20;4.60;;;3.80;64.00;;;;;;5098056;28;20149;-72
2021/03/24 02:52:12;;;;;;;7.90;4.38;;;3.70;64.50;;;;;;5098143;28;20028;-72
2021/03/24 02:54:39;;;;;;;6.38;4.47;;;3.70;65.10;;;;;;5097835;28;20309;-72
2021/03/24 02:57:05;;;;;;;9.27;4.60;;;3.70;65.00;;;;;;5097895;28;20024;-72
2021/03/24 02:59:31;;;;;;;8.30;4.22;;;3.60;65.20;;;;;;5097867;28;20069;-72
2021/03/24 03:02:15;;;;;;;8.27;5.80;;;3.50;65.10;;;;;;5097416;28;20032;-72
2021/03/24 03:04:48;;;;;;;7.80;4.70;;;3.40;65.30;;;;;;5097752;28;20021;-72
2021/03/24 03:07:19;;;;;;;8.82;4.65;;;3.40;65.30;;;;;;5097944;28;20177;-72
2021/03/24 03:09:48;;;;;;;5.30;4.00;;;3.40;64.70;;;;;;5079671;28;20430;-72
2021/03/24 03:12:34;;;;;;;6.07;4.13;;;3.40;64.80;;;;;;5097851;28;20085;-72
2021/03/24 03:15:04;;;;;;;;;;;3.40;64.70;;;;;;5079926;28;20071;-72
2021/03/24 03:17:42;;;;;;;7.25;4.00;;;3.30;65.00;;;;;;5097475;28;19911;-72
2021/03/24 03:20:15;;;;;;;7.78;4.28;;;3.30;65.10;;;;;;5097529;28;20107;-72
2021/03/24 03:22:50;;;;;;;5.88;4.05;;;3.40;64.90;;;;;;5097555;28;20028;-72
2021/03/24 03:25:35;;;;;;;7.47;4.32;;;3.50;65.30;;;;;;5079223;28;20048;-72
2021/03/24 03:28:05;;;;;;;14.95;4.30;;;3.50;65.50;;;;;;5097580;28;20107;-72
2021/03/24 03:30:34;;;;;;;5.80;4.15;;;3.50;65.20;;;;;;5097578;28;20036;-70
2021/03/24 03:33:04;;;;;;;7.70;3.85;;;3.50;64.60;;;;;;5097168;28;20024;-70
2021/03/24 03:35:32;;;;;;;7.95;4.50;;;3.50;64.00;;;;;;5097507;28;20028;-71
2021/03/24 03:38:00;;;;;;;9.32;4.95;;;3.40;64.20;;;;;;5079256;28;20103;-72
2021/03/24 03:40:30;;;;;;;8.70;4.78;;;3.40;64.60;;;;;;5079159;28;20400;-72
2021/03/24 03:42:56;;;;;;;6.60;4.65;;;3.50;64.50;;;;;;5097135;28;20035;-72
2021/03/24 03:45:23;;;;;;;7.35;4.03;;;3.50;64.80;;;;;;5097549;28;20157;-72
2021/03/24 03:47:49;;;;;;;6.50;4.45;;;3.50;64.70;;;;;;5097352;28;20466;-72
2021/03/24 03:50:19;;;;;;;6.55;4.80;;;3.50;64.40;;;;;;5096950;28;20024;-72
2021/03/24 03:52:59;;;;;;;6.97;4.97;;;3.50;64.20;;;;;;5097078;28;20046;-72
2021/03/24 03:55:37;;;;;;;10.45;5.15;;;3.60;64.30;;;;;;5096993;28;20327;-72
2021/03/24 03:58:09;;;;;;;9.05;5.20;;;3.60;64.40;;;;;;5097338;28;20020;-72
2021/03/24 04:00:40;;;;;;;7.40;4.68;;;3.60;64.40;;;;;;5078992;28;20032;-72
2021/03/24 04:03:13;;;;;;;12.23;4.93;;;3.60;64.30;;;;;;5096731;28;20031;-72
2021/03/24 04:05:47;;;;;;;12.55;4.95;;;3.60;64.20;;;;;;5096810;28;20036;-72
2021/03/24 04:08:26;;;;;;;12.80;4.60;;;3.60;64.60;;;;;;5097079;28;20024;-72
2021/03/24 04:10:56;;;;;;;9.82;4.78;;;3.50;65.20;;;;;;5097058;28;20020;-72
2021/03/24 04:13:25;;;;;;;9.15;4.97;;;3.50;65.90;;;;;;5097423;28;20438;-72
2021/03/24 04:15:53;;;;;;;11.43;5.05;;;3.40;66.20;;;;;;5101258;28;20320;-72
2021/03/24 04:18:35;;;;;;;6.78;5.03;;;3.30;66.10;;;;;;5083036;28;20052;-72
2021/03/24 04:21:02;;;;;;;6.68;4.35;;;3.30;66.70;;;;;;5101507;28;20033;-72
2021/03/24 04:23:34;;;;;;;8.05;4.35;;;3.30;66.90;;;;;;5101078;28;20436;-71
2021/03/24 04:26:14;;;;;;;9.93;5.70;;;3.20;66.80;;;;;;5100645;28;20047;-72
2021/03/24 04:28:44;;;;;;;7.15;4.60;;;3.20;67.00;;;;;;5100753;28;20058;-72
2021/03/24 04:31:14;;;;;;;11.15;5.50;;;3.10;67.30;;;;;;5100919;28;20305;-72
2021/03/24 04:33:40;;;;;;;7.55;4.78;;;3.00;67.30;;;;;;5100593;28;20100;-72
2021/03/24 04:36:34;;;;;;;6.65;4.45;;;3.00;67.20;;;;;;5100848;28;20016;-72
2021/03/24 04:39:09;;;;;;;6.72;4.53;;;3.00;67.80;;;;;;5100809;28;20016;-72
2021/03/24 04:41:39;;;;;;;10.20;4.97;;;2.90;68.00;;;;;;5100487;28;20111;-72
2021/03/24 04:44:17;;;;;;;10.32;5.57;;;2.90;68.10;;;;;;5082378;28;20089;-72
2021/03/24 04:46:45;;;;;;;7.57;4.93;;;2.90;67.80;;;;;;5100415;28;20108;-72
2021/03/24 04:49:21;;;;;;;11.15;5.25;;;2.90;67.60;;;;;;5100486;28;20534;-72
2021/03/24 04:51:47;;;;;;;10.23;5.43;;;2.90;67.30;;;;;;5100235;28;20436;-72
2021/03/24 04:54:29;;;;;;;6.10;3.92;;;2.90;67.40;;;;;;5100633;28;20028;-72
2021/03/24 04:57:11;;;;;;;9.45;4.57;;;2.90;67.50;;;;;;5100530;28;20430;-72
2021/03/24 04:59:55;;;;;;;6.57;4.47;;;2.90;67.60;;;;;;5100192;28;20108;-72
2021/03/24 05:02:26;;;;;;;11.10;5.00;;;2.90;68.00;;;;;;5082100;28;20020;-72
2021/03/24 05:05:04;;;;;;;6.28;4.60;;;2.90;67.90;;;;;;5100299;28;20024;-72
2021/03/24 05:07:39;;;;;;;8.80;4.53;;;2.90;67.90;;;;;;5100230;28;20304;-72
2021/03/24 05:10:12;;;;;;;7.78;4.50;;;2.90;68.10;;;;;;5100367;28;20491;-72
2021/03/24 05:12:42;;;;;;;8.20;4.35;;;2.90;67.90;;;;;;5100412;28;20053;-72
2021/03/24 05:15:17;;;;;;;8.93;4.10;;;2.90;67.40;;;;;;5100099;28;20024;-72
2021/03/24 05:17:44;;;;;;;12.70;4.22;;;2.90;67.80;;;;;;5081943;28;20036;-72
2021/03/24 05:20:20;;;;;;;5.90;4.00;;;3.00;67.80;;;;;;5099976;28;20070;-72
2021/03/24 05:22:46;;;;;;;;;;;3.00;67.80;;;;;;5100333;28;20054;-72
2021/03/24 05:25:12;;;;;;;14.70;8.73;;;3.00;67.50;;;;;;5099594;28;19916;-72
2021/03/24 05:27:44;;;;;;;16.40;11.35;;;3.00;67.30;;;;;;5100176;28;20032;-72
2021/03/24 05:30:16;;;;;;;12.55;6.63;;;3.10;66.90;;;;;;5099588;28;20085;-72
2021/03/24 05:32:47;;;;;;;8.77;4.95;;;3.20;66.60;;;;;;5081582;28;20029;-72
2021/03/24 05:35:43;;;;;;;8.73;5.20;;;3.30;66.20;;;;;;5081562;28;20305;-70
2021/03/24 05:38:21;;;;;;;13.57;5.70;;;3.50;64.70;;;;;;5099676;28;20358;-72
2021/03/24 05:41:11;;;;;;;10.73;5.32;;;3.60;64.60;;;;;;5099495;28;20028;-70
2021/03/24 05:43:58;;;;;;;8.00;4.90;;;3.70;65.60;;;;;;5099435;28;20036;-70
2021/03/24 05:46:31;;;;;;;9.25;4.70;;;3.80;65.10;;;;;;5099241;28;20057;-72
2021/03/24 05:49:15;;;;;;;6.78;4.65;;;4.00;64.60;;;;;;5099469;28;20107;-73
2021/03/24 05:51:59;;;;;;;7.97;4.43;;;4.20;63.40;;;;;;5099465;28;20315;-73
2021/03/24 05:55:06;;;;;;;6.75;4.15;;;4.30;64.80;;;;;;5099142;28;20067;-73
2021/03/24 05:57:32;;;;;;;7.00;4.47;;;4.40;63.50;;;;;;5047728;28;20035;-73
2021/03/24 06:00:20;;;;;;;8.18;4.82;;;4.50;61.40;;;;;;5099609;28;20032;-72
2021/03/24 06:02:52;;;;;;;6.95;4.45;;;4.60;62.40;;;;;;5099139;28;20082;-70
2021/03/24 06:05:25;;;;;;;7.40;4.47;;;4.70;62.50;;;;;;5098810;28;20024;-70
2021/03/24 06:08:07;;;;;;;8.35;4.68;;;4.90;61.30;;;;;;5099046;28;20390;-72
2021/03/24 06:10:51;;;;;;;8.23;4.45;;;5.10;62.70;;;;;;5099141;28;20032;-73
2021/03/24 06:13:45;;;;;;;7.32;5.10;;;5.20;62.10;;;;;;5098889;28;20491;-73
2021/03/24 06:16:31;;;;;;;7.18;4.43;;;5.40;60.50;;;;;;5059402;28;20039;-73
2021/03/24 06:19:26;;;;;;;10.00;4.67;;;5.50;60.50;;;;;;5098002;28;20040;-73
2021/03/24 06:22:36;;;;;;;8.30;4.82;;;5.60;61.40;;;;;;5098513;28;20270;-73
2021/03/24 06:25:17;;;;;;;8.07;4.40;;;5.70;60.80;;;;;;4996885;28;20431;-73
2021/03/24 06:27:56;;;;;;;7.00;4.25;;;5.90;61.40;;;;;;4996882;28;20022;-71
2021/03/24 06:30:34;;;;;;;8.15;4.90;;;6.10;59.50;;;;;;5067683;28;20365;-70
2021/03/24 06:33:15;;;;;;;7.55;4.93;;;6.20;59.50;;;;;;5098746;28;20024;-70
2021/03/24 06:35:46;;;;;;;12.07;4.45;;;6.40;60.40;;;;;;5080056;28;20123;-71
2021/03/24 06:38:33;;;;;;;11.48;5.65;;;6.50;59.90;;;;;;5098365;28;20028;-72
2021/03/24 06:41:23;;;;;;;8.95;4.00;;;6.70;58.90;;;;;;5098487;28;20090;-72
2021/03/24 06:44:27;;;;;;;8.73;5.38;;;6.80;56.90;;;;;;5098228;28;20024;-73
2021/03/24 06:46:57;;;;;;;10.10;4.43;;;6.90;58.00;;;;;;5084593;28;20045;-73
2021/03/24 06:49:43;;;;;;;6.97;4.35;;;7.00;56.80;;;;;;5098232;28;20103;-73
2021/03/24 06:52:37;;;;;;;9.13;4.67;;;7.10;56.60;;;;;;5098211;28;20436;-73
2021/03/24 06:55:33;;;;;;;9.27;5.13;;;7.20;56.00;;;;;;5050904;28;20262;-73
2021/03/24 06:58:32;;;;;;;9.63;4.40;;;7.30;57.80;;;;;;5097844;28;20031;-73
2021/03/24 07:01:16;;;;;;;11.35;4.88;;;7.40;56.90;;;;;;5097855;28;20024;-73
2021/03/24 07:04:17;;;;;;;7.57;4.40;;;7.40;55.30;;;;;;5079723;28;20145;-73
2021/03/24 07:06:46;;;;;;;7.03;4.60;;;7.40;54.70;;;;;;5066241;28;20043;-73
2021/03/24 07:09:17;;;;;;;8.38;4.72;;;7.30;55.00;;;;;;5097713;28;20346;-73
2021/03/24 07:12:20;;;;;;;10.02;4.10;;;7.40;54.00;;;;;;5097698;28;20053;-73
2021/03/24 07:15:04;;;;;;;8.43;4.10;;;7.40;53.20;;;;;;5097539;28;20069;-73
2021/03/24 07:18:01;;;;;;;6.53;4.45;;;7.40;55.60;;;;;;5097655;28;20320;-73
2021/03/24 07:21:04;;;;;;;5.80;3.92;;;7.40;55.00;;;;;;5079515;28;20052;-73
2021/03/24 07:23:48;;;;;;;5.80;4.40;;;7.40;55.30;;;;;;5079216;28;20032;-73
2021/03/24 07:26:45;;;;;;;10.30;4.43;;;7.40;55.80;;;;;;5097216;28;20048;-73
2021/03/24 07:29:38;;;;;;;7.13;4.65;;;7.50;55.00;;;;;;5097665;28;20032;-73
2021/03/24 07:32:26;;;;;;;6.00;4.03;;;7.60;54.60;;;;;;5097545;28;20032;-73
2021/03/24 07:35:21;;;;;;;6.75;4.78;;;7.90;55.20;;;;;;5097217;28;20028;-73
2021/03/24 07:37:59;;;;;;;9.00;4.68;;;8.10;53.30;;;;;;5097466;28;20105;-73
2021/03/24 07:40:51;;;;;;;6.00;4.10;;;8.20;53.60;;;;;;5097378;28;20099;-73
2021/03/24 07:43:38;;;;;;;6.43;4.35;;;8.20;54.90;;;;;;5097179;28;20024;-73
2021/03/24 07:46:31;;;;;;;8.48;5.30;;;8.10;54.20;;;;;;5097377;28;20375;-73
2021/03/24 07:49:38;;;;;;;7.15;4.18;;;8.00;54.70;;;;;;5096995;28;20024;-73
2021/03/24 07:52:11;;;;;;;8.02;4.45;;;7.90;54.20;;;;;;5097437;28;20024;-73
2021/03/24 07:54:40;;;;;;;6.82;4.65;;;7.80;55.70;;;;;;5097224;28;20028;-73
2021/03/24 07:57:25;;;;;;;9.60;4.93;;;7.80;54.40;;;;;;5097492;28;20066;-73
2021/03/24 08:00:14;;;;;;;6.65;4.78;;;7.80;56.70;;;;;;5079040;28;20297;-73
2021/03/24 08:02:59;;;;;;;8.15;5.38;;;7.90;54.90;;;;;;5096802;28;20043;-74
2021/03/24 08:05:33;;;;;;;7.22;4.60;;;8.10;54.70;;;;;;5078987;28;20027;-73
2021/03/24 08:08:08;;;;;;;7.22;4.95;;;8.40;53.40;;;;;;5096957;28;20073;-74
2021/03/24 08:10:39;;;;;;;7.93;4.60;;;8.70;53.20;;;;;;5097099;28;20416;-74
2021/03/24 08:13:32;;;;;;;11.43;4.80;;;9.10;51.70;;;;;;5096659;28;20455;-74
2021/03/24 08:16:13;;;;;;;10.63;5.40;;;9.80;50.70;;;;;;5078898;28;20370;-74
2021/03/24 08:19:04;;;;;;;8.63;4.75;;;10.90;48.10;;;;;;5096896;28;20028;-74
2021/03/24 08:22:05;;;;;;;11.85;4.53;;;12.00;46.60;;;;;;5097224;28;20047;-74
2021/03/24 08:24:43;;;;;;;8.15;4.75;;;12.80;44.70;;;;;;5089722;28;20093;-71
2021/03/24 08:27:20;;;;;;;5.97;4.65;;;13.50;44.20;;;;;;5096661;28;20079;-71
2021/03/24 08:30:01;;;;;;;8.80;4.38;;;14.30;42.50;;;;;;5096626;28;20087;-71
2021/03/24 08:32:50;;;;;;;6.63;4.38;;;14.80;41.20;;;;;;5096662;28;20028;-71
2021/03/24 08:35:31;;;;;;;12.75;5.00;;;15.30;41.70;;;;;;5096649;28;20024;-71
2021/03/24 08:38:15;;;;;;;8.25;5.07;;;15.40;40.60;;;;;;5096700;28;20020;-71
2021/03/24 08:41:18;;;;;;;7.63;4.72;;;15.50;40.10;;;;;;5096833;28;20103;-71
2021/03/24 08:44:02;;;;;;;7.28;5.28;;;15.70;40.70;;;;;;5096335;28;20420;-70
2021/03/24 08:46:35;;;;;;;16.00;5.80;;;16.30;39.80;;;;;;5096548;28;20047;-73
2021/03/24 08:49:18;;;;;;;10.05;4.63;;;16.60;38.70;;;;;;5096451;28;20023;-71
2021/03/24 08:51:53;;;;;;;6.35;4.68;;;16.50;39.90;;;;;;5096440;28;20036;-71
2021/03/24 08:54:40;;;;;;;5.03;4.45;;;17.00;40.10;;;;;;5078363;28;20032;-72
2021/03/24 08:57:12;;;;;;;7.53;4.82;;;17.40;37.90;;;;;;5078428;28;20040;-71
2021/03/24 08:59:46;;;;;;;7.18;4.88;;;17.40;38.40;;;;;;5079473;28;20386;-71
2021/03/24 09:02:41;;;;;;;8.10;4.78;;;17.40;37.90;;;;;;5100124;28;20032;-72
2021/03/24 09:05:29;;;;;;;15.47;5.20;;;17.20;38.80;;;;;;5100230;28;20020;-71
2021/03/24 09:08:03;;;;;;;8.30;5.13;;;17.10;38.30;;;;;;5100178;28;20024;-73
2021/03/24 09:11:06;;;;;;;7.20;4.75;;;17.20;38.80;;;;;;5099931;28;20031;-71
2021/03/24 09:13:44;;;;;;;8.23;4.90;;;17.20;38.20;;;;;;5100210;28;20328;-70
2021/03/24 09:16:45;;;;;;;7.13;5.28;;;17.50;39.30;;;;;;5099934;28;20024;-71
2021/03/24 09:19:50;;;;;;;10.00;4.78;;;17.30;37.60;;;;;;5099923;28;20028;-71
2021/03/24 09:22:38;;;;;;;6.18;4.85;;;17.00;40.30;;;;;;5048278;28;20040;-71
2021/03/24 09:25:28;;;;;;;9.43;5.45;;;17.20;37.40;;;;;;5081496;28;20058;-72
2021/03/24 09:28:47;;;;;;;10.48;5.57;;;17.40;37.50;;;;;;5081700;28;20109;-71
2021/03/24 09:31:27;;;;;;;11.27;5.03;;;17.50;38.90;;;;;;4998242;28;20065;-71
2021/03/24 09:34:37;;;;;;;9.68;5.45;;;18.00;37.90;;;;;;4998370;28;20061;-71
2021/03/24 09:37:07;;;;;;;9.18;5.07;;;18.10;38.20;;;;;;5086117;28;20127;-71
2021/03/24 09:39:45;;;;;;;8.68;5.60;;;17.90;38.80;;;;;;5099513;28;20034;-71
2021/03/24 09:42:46;;;;;;;9.15;4.93;;;17.60;37.70;;;;;;5099344;28;20024;-71
2021/03/24 09:45:12;;;;;;;7.20;5.22;;;18.00;36.70;;;;;;5099346;28;20047;-71
2021/03/24 09:48:09;;;;;;;9.35;5.28;;;18.40;38.10;;;;;;5099262;28;20016;-71
2021/03/24 09:50:53;;;;;;;9.73;4.57;;;18.00;39.10;;;;;;5099370;28;20032;-73
2021/03/24 09:53:19;;;;;;;7.78;4.68;;;17.40;37.30;;;;;;5099541;28;20118;-71
2021/03/24 09:56:04;;;;;;;8.38;5.13;;;17.40;38.30;;;;;;5099294;28;20063;-71
2021/03/24 09:58:58;;;;;;;9.82;5.35;;;17.40;37.30;;;;;;5099132;28;20319;-71
2021/03/24 10:01:49;;;;;;;9.07;5.15;;;17.40;38.00;;;;;;5081016;28;20043;-71
2021/03/24 10:04:19;;;;;;;12.02;5.40;;;17.50;39.70;;;;;;5080948;28;20078;-71
2021/03/24 10:06:48;;;;;;;7.00;4.45;;;17.70;35.90;;;;;;5098869;28;20111;-71
2021/03/24 10:09:25;;;;;;;7.88;4.90;;;17.80;38.40;;;;;;5098964;28;20024;-72
2021/03/24 10:12:00;;;;;;;13.23;5.25;;;18.20;40.20;;;;;;5097522;28;20024;-71
2021/03/24 10:14:25;;;;;;;7.15;5.07;;;18.30;36.30;;;;;;5071270;28;20332;-71
2021/03/24 10:17:00;;;;;;;12.77;5.15;;;18.30;37.90;;;;;;5096170;28;20036;-71
2021/03/24 10:19:39;;;;;;;7.18;5.10;;;18.30;36.90;;;;;;5098800;28;20361;-72
2021/03/24 10:22:32;;;;;;;8.35;5.07;;;18.20;37.90;;;;;;5080451;28;20081;-72
2021/03/24 10:25:19;;;;;;;9.60;5.85;;;17.90;36.60;;;;;;5098524;28;20082;-73
2021/03/24 10:27:49;;;;;;;8.60;5.40;;;17.70;38.20;;;;;;5080607;28;20126;-71
2021/03/24 10:30:25;;;;;;;10.93;4.90;;;17.70;38.10;;;;;;5098354;28;20024;-71
2021/03/24 10:33:10;;;;;;;7.45;5.13;;;17.80;36.50;;;;;;5098694;28;20052;-71
2021/03/24 10:35:39;;;;;;;11.18;5.18;;;17.70;38.40;;;;;;5098314;28;20054;-70
2021/03/24 10:38:34;;;;;;;6.22;5.20;;;18.10;37.00;;;;;;5098589;28;20305;-71
2021/03/24 10:41:37;;;;;;;7.32;5.40;;;18.40;35.50;;;;;;5098138;28;20026;-71
2021/03/24 10:44:05;;;;;;;7.10;5.03;;;18.60;38.30;;;;;;5080124;28;20028;-71
2021/03/24 10:46:46;;;;;;;10.00;6.05;;;18.70;36.10;;;;;;5098125;28;20104;-71
2021/03/24 10:49:17;;;;;;;11.20;5.97;;;18.60;36.60;;;;;;5098095;28;20028;-71
2021/03/24 10:52:03;;;;;;;10.25;5.15;;;18.50;36.30;;;;;;5098012;28;20027;-71
2021/03/24 10:54:33;;;;;;;9.02;5.65;;;18.50;38.70;;;;;;5098037;28;20035;-71
2021/03/24 10:57:22;;;;;;;14.07;5.97;;;18.20;36.60;;;;;;5098263;28;20040;-71
2021/03/24 11:00:20;;;;;;;9.20;6.03;;;18.20;38.10;;;;;;5097884;28;20031;-71
2021/03/24 11:03:11;;;;;;;10.43;6.43;;;18.30;40.00;;;;;;5076337;28;20068;-71
2021/03/24 11:05:37;;;;;;;10.93;6.05;;;18.00;37.30;;;;;;5079915;28;20094;-70
2021/03/24 11:08:11;;;;;;;11.18;6.25;;;17.60;37.50;;;;;;5097901;28;20507;-71
2021/03/24 11:10:47;;;;;;;12.45;6.45;;;17.70;40.70;;;;;;5098148;28;20347;-72
2021/03/24 11:13:22;;;;;;;11.52;5.95;;;17.60;39.40;;;;;;5097522;28;20036;-71
2021/03/24 11:15:56;;;;;;;8.98;6.00;;;18.00;38.40;;;;;;5098196;28;20020;-71
2021/03/24 11:18:30;;;;;;;7.13;6.03;;;18.40;40.00;;;;;;5079673;28;20043;-71
2021/03/24 11:20:59;;;;;;;10.57;6.20;;;18.60;37.10;;;;;;5097796;28;20031;-71
2021/03/24 11:23:39;;;;;;;10.02;6.43;;;18.50;37.50;;;;;;5097303;28;20403;-71
2021/03/24 11:26:31;;;;;;;16.95;6.25;;;18.40;37.10;;;;;;5097266;28;20499;-71
2021/03/24 11:29:01;;;;;;;11.30;6.32;;;18.40;38.10;;;;;;5050423;28;20122;-71
2021/03/24 11:32:05;;;;;;;12.25;6.55;;;18.30;38.60;;;;;;5097761;28;20032;-71
2021/03/24 11:34:55;;;;;;;8.35;6.80;;;18.10;39.00;;;;;;5082234;28;20024;-71
2021/03/24 11:37:48;;;;;;;7.72;6.20;;;18.30;39.10;;;;;;5097303;28;20024;-71
2021/03/24 11:40:24;;;;;;;11.60;6.45;;;18.20;39.50;;;;;;5097494;28;20044;-71
2021/03/24 11:42:59;;;;;;;8.43;6.38;;;18.10;39.90;;;;;;5097366;28;20028;-71
2021/03/24 11:45:29;;;;;;;10.68;7.28;;;18.30;39.40;;;;;;5097748;28;20103;-73
2021/03/24 11:48:16;;;;;;;9.02;7.32;;;18.20;37.50;;;;;;5097115;28;20031;-71
2021/03/24 11:50:59;;;;;;;10.50;7.22;;;18.40;37.50;;;;;;5097311;28;20035;-72
2021/03/24 11:53:48;;;;;;;9.23;6.93;;;18.10;37.80;;;;;;5097320;28;20319;-72
2021/03/24 11:56:32;;;;;;;10.45;8.52;;;18.00;39.30;;;;;;5096914;28;20043;-72
2021/03/24 11:59:09;;;;;;;12.95;8.02;;;17.80;39.00;;;;;;5097176;28;20028;-72
2021/03/24 12:01:46;;;;;;;12.65;7.80;;;17.60;39.40;;;;;;5096764;28;20028;-72
2021/03/24 12:04:50;;;;;;;10.77;7.47;;;17.80;39.60;;;;;;5097107;28;20028;-72
2021/03/24 12:07:57;;;;;;;9.15;7.57;;;17.70;38.90;;;;;;5078933;28;20024;-72
2021/03/24 12:10:25;;;;;;;10.55;7.68;;;17.40;39.60;;;;;;5024527;28;20028;-72
2021/03/24 12:12:59;;;;;;;12.05;8.15;;;17.20;40.80;;;;;;5097030;28;20077;-72
2021/03/24 12:15:32;;;;;;;11.00;8.00;;;16.80;39.70;;;;;;5078890;28;20028;-72
2021/03/24 12:18:09;;;;;;;11.63;7.80;;;16.60;38.80;;;;;;5096753;28;20020;-72
2021/03/24 12:20:52;;;;;;;9.80;7.70;;;16.70;40.80;;;;;;5096728;28;20107;-72
2021/03/24 12:23:19;;;;;;;13.15;8.38;;;16.60;40.30;;;;;;5078695;28;20036;-72
2021/03/24 12:25:50;;;;;;;13.18;7.78;;;16.60;41.50;;;;;;5096412;28;20052;-72
2021/03/24 12:28:28;;;;;;;17.23;8.75;;;16.40;43.00;;;;;;5097065;28;20020;-72
2021/03/24 12:31:21;;;;;;;14.38;9.43;;;16.10;40.70;;;;;;5097196;28;20031;-72
2021/03/24 12:34:16;;;;;;;9.55;7.82;;;15.80;39.60;;;;;;5096512;28;20012;-72
2021/03/24 12:37:20;;;;;;;9.38;7.75;;;15.70;43.40;;;;;;5095683;28;20115;-72
2021/03/24 12:39:46;;;;;;;16.02;8.30;;;15.60;41.00;;;;;;5100554;28;20020;-72
2021/03/24 12:42:22;;;;;;;11.75;8.23;;;15.40;41.80;;;;;;5100501;28;20035;-72
2021/03/24 12:44:48;;;;;;;10.73;8.25;;;15.10;43.10;;;;;;5100531;28;20020;-72
2021/03/24 12:47:38;;;;;;;12.15;8.07;;;14.90;43.50;;;;;;5100461;28;20564;-72
2021/03/24 12:50:15;;;;;;;12.27;8.73;;;14.80;45.90;;;;;;5100618;28;20114;-72
2021/03/24 12:52:50;;;;;;;11.27;8.30;;;14.90;42.40;;;;;;5100883;28;20063;-72
2021/03/24 12:55:17;;;;;;;16.00;9.52;;;14.90;44.10;;;;;;5100223;28;20093;-72
2021/03/24 12:57:43;;;;;;;14.57;9.20;;;14.80;44.80;;;;;;5100612;28;20036;-72
2021/03/24 13:00:26;;;;;;;11.52;8.65;;;14.80;43.60;;;;;;5100237;28;20369;-72
2021/03/24 13:03:18;;;;;;;14.80;10.38;;;14.70;42.90;;;;;;5100221;28;20028;-72
2021/03/24 13:05:50;;;;;;;12.93;10.00;;;14.20;44.60;;;;;;5100293;28;20419;-72
2021/03/24 13:08:24;;;;;;;12.43;9.10;;;14.10;45.10;;;;;;5100346;28;20035;-72
2021/03/24 13:10:51;;;;;;;17.15;9.82;;;14.40;43.60;;;;;;5100038;28;20016;-72
2021/03/24 13:13:38;;;;;;;15.52;11.35;;;14.20;46.80;;;;;;5099901;28;20051;-72
2021/03/24 13:16:16;;;;;;;11.93;9.65;;;14.10;43.40;;;;;;5100213;28;20028;-72
2021/03/24 13:18:55;;;;;;;17.00;10.18;;;14.10;46.30;;;;;;5100187;28;20036;-72
2021/03/24 13:21:40;;;;;;;12.52;10.10;;;14.10;48.20;;;;;;5099814;28;20093;-72
2021/03/24 13:24:15;;;;;;;13.07;10.70;;;14.10;43.30;;;;;;5081909;28;20324;-72
2021/03/24 13:26:41;;;;;;;12.48;9.85;;;14.30;45.90;;;;;;5099574;28;20110;-72
2021/03/24 13:29:23;;;;;;;13.52;9.48;;;14.30;44.80;;;;;;5099776;28;20024;-72
2021/03/24 13:32:10;;;;;;;13.52;10.30;;;14.20;45.60;;;;;;5099571;28;20047;-72
2021/03/24 13:34:58;;;;;;;11.57;10.18;;;14.30;45.70;;;;;;5099478;28;20032;-72
2021/03/24 13:37:26;;;;;;;14.05;10.20;;;14.30;47.90;;;;;;5099384;28;20254;-72
2021/03/24 13:39:55;;;;;;;12.43;10.65;;;14.20;47.80;;;;;;5099388;28;20077;-72
2021/03/24 13:42:23;;;;;;;18.02;10.70;;;14.30;45.70;;;;;;5099562;28;20028;-72
2021/03/24 13:45:20;;;;;;;12.95;11.48;;;14.30;45.40;;;;;;5099321;28;20046;-72